Terminal Aerodrome Forecast
Issued by NWS Louisville, KY

Home | Current Version | Previous Version | Text Only | Print | Product List | Glossary Off
Versions: 1 2 3 4 5 6 7 8 9 10 11 12 13 14

000
FTUS43 KLMK 012320
TAFLEX
TAF
KLEX 012320Z 0200/0224 00000KT P6SM BKN250
     FM020900 00000KT 5SM BR SCT250
     FM021300 32005KT P6SM SCT050=

USA.gov is the U.S. government's official web portal to all federal, state and local government web resources and services.